Aurora State Airport Aurora US
ICAO: KUAO
IATA: UAO
Category: Medium
Scheduled Services: No

Elevation: 200 ft
TransAlt. 18000 ft.

Airport Communications:
PORTLAND APP/DEP:126
ASOS:118.525
PORTLAND CLNC DEL:119.95
CTAF/UNICOM:122.7

KUAO Zoom In..

Runways:

(A) RW 17 length 5004 ft width 100 ft
LOC 111.15 / hdg 169

(B) RW 35 length 5004 ft width 100 ft
LOC 111.15 / hdg 349

Location; KUAO
Day. 26 / Time. 03.53 Zulu
* Altimeter: 30.06
* Temperature: 16° c. 60.8°f.
* Wind from: 330° Speed 06 kn.
Dewpoint: 04° c.
Visibility: 10 Statute Miles.
Clouds: Overcast 5500 ft.

KUAO 260353Z 33006KT 10SM OVC055 16/04 A3006 RMK AO2 SLP176 T01560039


Wind From 330°
Speed 06 kn.

 
 
jpsmedia.com for Web Design SOUNDCLOUD worldairports.se 2018   terms of use